Time;durP1;ratioP1;P1;durP2;ratioP2;P2;SDS_P1;SDS_P2;PMS_P1;PMS_P2;Temp;Humidity;BMP_temperature;BMP_pressure;BME280_temperature;BME280_humidity;BME280_pressure;Samples;Min_cycle;Max_cycle;Signal;HPM_P1;HPM_P2
2021/07/07 00:00:05;;;;;;;12.63;5.95;;;;;;;19.60;58.23;99909.28;4801359;29;20055;-58
2021/07/07 00:02:31;;;;;;;13.57;4.88;;;;;;;19.59;58.15;99912.84;4802055;29;20155;-58
2021/07/07 00:04:57;;;;;;;10.25;5.63;;;;;;;19.56;58.38;99910.44;5246372;24;20098;-60
2021/07/07 00:07:23;;;;;;;13.15;5.43;;;;;;;19.54;58.64;99914.94;4783132;29;20396;-60
2021/07/07 00:09:48;;;;;;;13.25;6.10;;;;;;;19.49;58.84;99915.28;4784107;29;20058;-59
2021/07/07 00:12:14;;;;;;;12.57;5.97;;;;;;;19.47;59.04;99922.44;4783219;29;20047;-58
2021/07/07 00:15:11;;;;;;;15.40;5.85;;;;;;;19.43;59.15;99921.75;5166327;24;20030;31
2021/07/07 00:17:38;;;;;;;13.13;5.72;;;;;;;19.40;59.47;99918.50;4727859;30;20167;-59
2021/07/07 00:20:05;;;;;;;15.77;5.90;;;;;;;19.39;59.56;99916.81;4730482;30;20608;-58
2021/07/07 00:22:31;;;;;;;18.98;6.32;;;;;;;19.37;59.78;99918.69;4714071;30;20151;-58
2021/07/07 00:24:57;;;;;;;15.02;5.90;;;;;;;19.36;59.93;99924.94;4714659;30;20166;-58
2021/07/07 00:27:24;;;;;;;17.77;5.97;;;;;;;19.35;60.18;99924.09;4729467;30;20045;-58
2021/07/07 00:29:51;;;;;;;18.42;6.13;;;;;;;19.33;60.62;99922.47;4730392;30;20049;-58
2021/07/07 00:32:18;;;;;;;18.48;5.88;;;;;;;19.30;60.46;99928.81;4729412;30;20059;-57
2021/07/07 00:34:45;;;;;;;14.60;6.25;;;;;;;19.29;60.65;99928.91;4730223;30;20109;-57
2021/07/07 00:37:11;;;;;;;13.30;5.97;;;;;;;19.27;61.03;99931.63;4730031;30;20264;-59
2021/07/07 00:39:37;;;;;;;12.65;5.45;;;;;;;19.25;60.87;99933.56;4729527;30;20052;-58
2021/07/07 00:42:03;;;;;;;16.48;6.28;;;;;;;19.24;60.85;99938.91;4730358;30;20044;-59
2021/07/07 00:44:29;;;;;;;11.80;6.00;;;;;;;19.22;61.09;99938.16;4728743;30;20934;-59
2021/07/07 00:46:54;;;;;;;17.65;6.60;;;;;;;19.19;61.21;99948.91;5217918;24;20068;-58
2021/07/07 00:49:20;;;;;;;17.55;6.72;;;;;;;19.18;61.21;99948.06;4765230;30;20044;-58
2021/07/07 00:51:47;;;;;;;10.35;5.47;;;;;;;19.17;61.29;99951.66;4764545;29;20055;-57
2021/07/07 00:54:14;;;;;;;15.18;5.75;;;;;;;19.14;61.14;99951.84;4765238;29;20051;-58
2021/07/07 00:56:41;;;;;;;14.13;5.35;;;;;;;19.14;61.55;99956.28;4764623;29;20082;-58
2021/07/07 00:59:07;;;;;;;14.93;5.65;;;;;;;19.12;61.65;99944.97;4747928;30;20051;-58
2021/07/07 01:01:34;;;;;;;13.73;5.90;;;;;;;19.11;61.67;99956.47;4763833;29;20055;-58
2021/07/07 01:03:59;;;;;;;13.25;6.03;;;;;;;19.09;61.93;99955.75;4768668;30;20463;-59
2021/07/07 01:06:25;;;;;;;13.07;5.90;;;;;;;19.08;62.03;99952.25;4769269;29;20055;-59
2021/07/07 01:08:50;;;;;;;16.83;6.20;;;;;;;19.07;62.21;99954.97;4747507;30;20067;-58
2021/07/07 01:11:16;;;;;;;19.48;5.90;;;;;;;19.06;62.56;99956.75;4764762;30;20054;-58
2021/07/07 01:13:42;;;;;;;29.75;6.93;;;;;;;19.07;62.68;99947.91;4748496;30;20052;-57
2021/07/07 01:16:08;;;;;;;17.83;7.05;;;;;;;19.07;62.26;99960.25;4764805;30;20043;-59
2021/07/07 01:18:34;;;;;;;22.88;6.40;;;;;;;19.05;62.52;99961.19;4748805;30;20520;-58
2021/07/07 01:21:04;;;;;;;21.20;6.95;;;;;;;19.04;62.83;99962.16;4764338;29;20056;-58
2021/07/07 01:23:30;;;;;;;22.17;6.40;;;;;;;19.03;62.95;99964.88;4764715;30;20048;-59
2021/07/07 01:25:56;;;;;;;20.48;7.00;;;;;;;19.03;62.91;99967.53;4747954;30;20089;-58
2021/07/07 01:28:22;;;;;;;19.58;6.95;;;;;;;19.04;63.05;99961.31;4748808;30;20046;-59
2021/07/07 01:30:48;;;;;;;21.13;6.68;;;;;;;19.03;63.17;99962.25;4763579;30;20130;-57
2021/07/07 01:33:14;;;;;;;16.52;6.15;;;;;;;19.01;63.22;99964.13;4764317;29;20043;-57
2021/07/07 01:35:40;;;;;;;25.73;7.72;;;;;;;19.01;62.96;99967.59;4764497;30;20519;-58
2021/07/07 01:38:05;;;;;;;23.23;7.15;;;;;;;19.00;63.29;99965.06;4763861;29;20052;-59
2021/07/07 01:40:31;;;;;;;19.73;6.85;;;;;;;19.02;63.40;99965.81;4764825;30;20059;-59
2021/07/07 01:42:57;;;;;;;21.40;7.72;;;;;;;19.03;63.72;99976.28;4747802;30;20054;-59
2021/07/07 01:45:24;;;;;;;18.15;7.35;;;;;;;19.01;63.81;99980.78;4764540;29;20626;-59
2021/07/07 01:47:51;;;;;;;19.08;6.93;;;;;;;19.01;63.74;99983.41;5231176;24;21525;-58
2021/07/07 01:50:17;;;;;;;19.23;7.10;;;;;;;19.00;63.72;99981.72;4780503;29;20043;-59
2021/07/07 01:52:43;;;;;;;20.85;7.85;;;;;;;19.01;63.65;99986.06;4781585;29;20534;-59
2021/07/07 01:55:11;;;;;;;27.83;7.90;;;;;;;19.03;63.34;99994.72;4772782;29;20457;-58
2021/07/07 02:00:34;;;;;;;24.65;7.45;;;;;;;19.06;63.64;99996.28;4777575;29;20051;-58
2021/07/07 02:03:00;;;;;;;22.50;8.07;;;;;;;19.06;63.84;99996.28;4781840;29;20080;-59
2021/07/07 02:05:32;;;;;;;19.50;7.30;;;;;;;19.05;64.29;99995.44;4781068;29;20062;-58
2021/07/07 02:08:06;;;;;;;23.42;7.90;;;;;;;19.08;63.80;99993.56;4781786;29;20571;-58
2021/07/07 02:10:36;;;;;;;28.73;7.72;;;;;;;19.06;63.85;99998.94;4763381;29;20055;-58
2021/07/07 02:13:04;;;;;;;24.58;8.18;;;;;;;19.09;64.07;99997.91;4764505;30;20043;-59
2021/07/07 02:15:32;;;;;;;25.02;7.80;;;;;;;19.08;64.14;99999.69;4762720;30;20048;-58
2021/07/07 02:17:58;;;;;;;24.35;8.07;;;;;;;19.12;64.24;100000.34;4762948;30;20055;-59
2021/07/07 02:20:25;;;;;;;22.48;7.75;;;;;;;19.12;64.12;100002.97;4762682;29;20083;-59
2021/07/07 02:22:51;;;;;;;21.15;7.40;;;;;;;19.12;64.17;100010.88;4763760;30;20134;-59
2021/07/07 02:25:23;;;;;;;18.83;7.80;;;;;;;19.12;64.07;100009.09;4763149;29;20568;-58
2021/07/07 02:27:50;;;;;;;20.60;7.38;;;;;;;19.12;64.39;100009.09;4763779;29;20424;-58
2021/07/07 02:30:18;;;;;;;16.42;7.88;;;;;;;19.14;64.53;100011.63;5230331;24;20440;-58
2021/07/07 02:32:44;;;;;;;23.23;7.60;;;;;;;19.14;64.43;100009.00;4799339;29;20047;-59
2021/07/07 02:35:14;;;;;;;25.58;8.43;;;;;;;19.16;64.64;100015.84;4785640;29;20046;-59
2021/07/07 02:37:41;;;;;;;26.05;8.45;;;;;;;19.19;64.42;100020.94;4785876;29;20055;-61
2021/07/07 02:40:09;;;;;;;24.67;7.30;;;;;;;19.21;64.50;100015.56;4785379;29;20601;-59
2021/07/07 02:42:35;;;;;;;18.25;7.57;;;;;;;19.24;64.56;100021.50;4780737;29;20416;-59
2021/07/07 02:45:02;;;;;;;24.30;8.00;;;;;;;19.26;64.54;100024.03;4782143;29;20112;-58
2021/07/07 02:47:29;;;;;;;17.85;7.30;;;;;;;19.27;64.57;100021.28;4780702;29;20584;-59
2021/07/07 02:49:54;;;;;;;23.10;8.18;;;;;;;19.29;64.21;100029.94;4781886;29;20084;-58
2021/07/07 02:52:20;;;;;;;14.00;7.47;;;;;;;19.32;64.08;100031.53;4780870;29;20088;-59
2021/07/07 02:54:48;;;;;;;18.75;7.50;;;;;;;19.34;63.93;100030.50;4780696;29;20089;-58
2021/07/07 02:57:15;;;;;;;19.83;7.78;;;;;;;19.37;63.98;100030.28;4781218;29;20548;-57
2021/07/07 02:59:41;;;;;;;18.55;8.02;;;;;;;19.38;63.93;100031.97;4781314;29;20563;-59
2021/07/07 03:02:06;;;;;;;22.23;8.18;;;;;;;19.40;63.67;100031.88;4780538;29;20044;-58
2021/07/07 03:04:32;;;;;;;20.00;7.80;;;;;;;19.42;63.31;100033.47;4785451;29;20058;-58
2021/07/07 03:06:58;;;;;;;16.42;7.75;;;;;;;19.48;63.22;100037.53;4785660;29;20568;-59
2021/07/07 03:09:23;;;;;;;16.20;8.43;;;;;;;19.50;62.49;100035.66;4785442;29;20567;-58
2021/07/07 03:11:49;;;;;;;23.73;8.38;;;;;;;19.52;62.64;100041.69;4781705;29;20043;-58
2021/07/07 03:14:14;;;;;;;16.98;8.30;;;;;;;19.54;62.36;100042.41;4781047;29;20530;-57
2021/07/07 03:16:40;;;;;;;17.80;8.55;;;;;;;19.57;62.48;100044.00;4781542;29;20047;-58
2021/07/07 03:22:01;;;;;;;18.73;8.38;;;;;;;19.65;62.14;100052.25;4996660;24;20059;-60
2021/07/07 03:24:27;;;;;;;17.83;9.00;;;;;;;19.67;61.45;100053.00;4785350;29;20055;-59
2021/07/07 03:26:53;;;;;;;21.33;11.88;;;;;;;19.69;61.44;100051.94;4785719;29;20112;-58
2021/07/07 03:29:18;;;;;;;19.40;9.63;;;;;;;19.73;60.68;100048.16;4785564;29;20047;-59
2021/07/07 03:31:44;;;;;;;18.50;9.90;;;;;;;19.78;60.88;100055.78;4785459;29;20079;-54
2021/07/07 03:34:09;;;;;;;15.48;9.77;;;;;;;19.81;60.52;100055.56;4788695;29;20116;-58
2021/07/07 03:36:35;;;;;;;14.40;8.50;;;;;;;19.85;60.04;100054.41;4788337;29;20471;-58
2021/07/07 03:39:01;;;;;;;21.50;11.07;;;;;;;19.88;59.96;100048.94;4788276;29;20071;-57
2021/07/07 03:41:26;;;;;;;17.02;8.70;;;;;;;19.95;59.46;100052.00;4786813;29;20519;-59
2021/07/07 03:43:52;;;;;;;20.98;12.50;;;;;;;19.99;59.73;100057.00;4784235;29;20090;-58
2021/07/07 03:46:18;;;;;;;18.67;8.73;;;;;;;20.02;59.52;100064.69;4783358;29;20134;-57
2021/07/07 03:48:43;;;;;;;19.42;11.50;;;;;;;20.07;59.27;100067.03;4783826;29;20065;-58
2021/07/07 03:51:09;;;;;;;25.30;14.07;;;;;;;20.11;59.60;100065.88;4784058;29;20531;-58
2021/07/07 03:53:35;;;;;;;17.10;9.70;;;;;;;20.15;59.55;100068.19;4783102;29;20657;-59
2021/07/07 03:56:00;;;;;;;15.07;8.40;;;;;;;20.20;59.46;100075.81;4768176;29;20096;-58
2021/07/07 03:58:27;;;;;;;17.02;9.80;;;;;;;20.22;60.23;100076.53;4788083;29;20591;-59
2021/07/07 04:00:53;;;;;;;18.73;9.20;;;;;;;20.25;60.54;100079.81;4788102;29;20116;-58
2021/07/07 04:03:18;;;;;;;17.08;8.63;;;;;;;20.28;60.48;100079.63;4767167;29;20527;-58
2021/07/07 04:05:44;;;;;;;17.85;8.73;;;;;;;20.30;60.16;100080.38;4785920;29;20077;-58
2021/07/07 04:08:09;;;;;;;17.65;7.93;;;;;;;20.37;59.41;100079.97;4771895;30;20043;-59
2021/07/07 04:10:35;;;;;;;62.33;39.90;;;;;;;20.42;59.41;100085.78;4787682;29;20047;-58
2021/07/07 04:13:01;;;;;;;14.73;9.27;;;;;;;20.44;58.61;100084.75;4787873;29;20043;-58
2021/07/07 04:15:27;;;;;;;16.38;7.65;;;;;;;20.49;58.02;100084.41;4772011;29;20047;-59
2021/07/07 04:18:03;;;;;;;15.90;8.63;;;;;;;20.53;57.89;100083.25;4791058;29;20043;-59
2021/07/07 04:20:29;;;;;;;16.92;9.40;;;;;;;20.56;57.78;100083.91;4782198;29;20071;-57
2021/07/07 04:22:55;;;;;;;17.52;7.55;;;;;;;20.60;58.06;100081.88;4785773;29;20473;-59
2021/07/07 04:25:20;;;;;;;17.55;8.30;;;;;;;20.64;57.72;100078.91;4787472;29;20066;-58
2021/07/07 04:27:47;;;;;;;15.35;8.38;;;;;;;20.72;57.41;100083.69;4779467;29;20048;-58
2021/07/07 04:30:16;;;;;;;15.82;7.75;;;;;;;20.78;57.13;100087.69;4787282;29;20515;-58
2021/07/07 04:32:41;;;;;;;12.68;6.90;;;;;;;20.84;57.30;100085.44;4787327;29;20522;-58
2021/07/07 04:35:09;;;;;;;16.45;8.35;;;;;;;20.89;57.22;100079.84;4787718;30;20062;-57
2021/07/07 04:37:35;;;;;;;16.42;8.00;;;;;;;20.93;57.16;100082.19;4787451;30;20086;-58
2021/07/07 04:40:03;;;;;;;25.58;7.70;;;;;;;21.01;56.66;100085.09;4787360;29;20050;-57
2021/07/07 04:42:29;;;;;;;19.30;11.10;;;;;;;21.07;56.93;100083.84;4783576;29;20054;-58
2021/07/07 04:44:54;;;;;;;17.55;8.93;;;;;;;21.13;56.50;100093.97;4783287;29;20427;-58
2021/07/07 04:47:20;;;;;;;19.60;10.93;;;;;;;21.18;56.92;100085.75;4781580;29;20538;-56
2021/07/07 04:49:47;;;;;;;18.80;10.20;;;;;;;21.24;56.54;100101.19;4783035;29;20098;-58
2021/07/07 04:52:12;;;;;;;21.48;11.73;;;;;;;21.30;56.23;100096.28;4783415;29;20070;-58
2021/07/07 04:54:38;;;;;;;12.63;7.22;;;;;;;21.35;56.29;100096.81;4782224;29;20043;-58
2021/07/07 04:57:04;;;;;;;20.85;10.45;;;;;;;21.41;56.58;100092.84;4783566;29;20035;-58
2021/07/07 04:59:29;;;;;;;16.77;7.97;;;;;;;21.48;55.84;100096.75;4786837;29;20127;-58
2021/07/07 05:01:55;;;;;;;19.35;7.70;;;;;;;21.56;55.73;100102.34;4783916;29;20127;-58
2021/07/07 05:04:21;;;;;;;13.77;7.80;;;;;;;21.65;55.22;100100.81;4782506;29;20051;-58
2021/07/07 05:06:46;;;;;;;15.60;7.97;;;;;;;21.71;55.13;100098.56;4778589;29;20484;-58
2021/07/07 05:09:12;;;;;;;15.00;7.80;;;;;;;21.79;55.31;100106.78;4769386;30;20424;-59
2021/07/07 05:11:38;;;;;;;23.10;12.88;;;;;;;21.87;55.38;100103.56;4761361;29;20059;-59
2021/07/07 05:14:03;;;;;;;21.88;13.35;;;;;;;21.93;55.68;100103.09;4776400;29;20044;-60
2021/07/07 05:16:29;;;;;;;23.35;8.98;;;;;;;22.03;55.37;100100.66;4764861;29;20156;-58
2021/07/07 05:18:55;;;;;;;20.10;9.48;;;;;;;22.12;55.24;100105.25;4781378;29;20538;-60
2021/07/07 05:21:20;;;;;;;14.27;7.78;;;;;;;22.19;55.30;100111.78;4777113;29;20147;-59
2021/07/07 05:23:46;;;;;;;20.08;9.75;;;;;;;22.30;55.86;100107.34;4781859;29;20039;-59
2021/07/07 05:26:12;;;;;;;15.38;8.43;;;;;;;22.39;55.74;100119.06;4782167;29;20066;-61
2021/07/07 05:28:37;;;;;;;22.17;10.85;;;;;;;22.48;55.75;100115.72;4781340;29;20594;-61
2021/07/07 05:31:07;;;;;;;17.50;8.32;;;;;;;22.56;55.34;100112.47;4781332;29;20099;-60
2021/07/07 05:33:36;;;;;;;15.68;7.25;;;;;;;22.65;53.65;100112.63;4781439;29;20197;-59
2021/07/07 05:36:06;;;;;;;19.10;10.82;;;;;;;22.76;53.37;100119.75;4782057;29;20715;-59
2021/07/07 05:38:33;;;;;;;20.13;9.93;;;;;;;22.82;53.09;100121.91;4781041;29;20108;-59
2021/07/07 05:40:59;;;;;;;25.45;11.88;;;;;;;22.92;53.32;100130.03;4781755;29;20515;-60
2021/07/07 05:43:25;;;;;;;16.52;8.38;;;;;;;23.02;52.50;100131.84;4780946;29;20146;-59
2021/07/07 05:45:51;;;;;;;17.65;8.05;;;;;;;23.11;51.66;100131.09;4781908;29;20537;-59
2021/07/07 05:48:17;;;;;;;18.20;7.25;;;;;;;23.22;50.88;100130.25;4782190;29;20054;-59
2021/07/07 05:50:43;;;;;;;21.85;10.60;;;;;;;23.34;51.17;100128.44;4785356;29;20047;-59
2021/07/07 05:53:08;;;;;;;20.58;11.20;;;;;;;23.45;51.54;100133.69;4781697;29;20058;-58
2021/07/07 05:55:34;;;;;;;16.35;7.63;;;;;;;23.55;52.06;100132.88;4761702;29;20060;-59
2021/07/07 05:58:00;;;;;;;28.92;9.15;;;;;;;23.69;51.85;100144.19;4763365;29;20047;-59
2021/07/07 06:00:26;;;;;;;10.55;6.13;;;;;;;23.79;49.87;100132.69;4780930;29;20418;-60
2021/07/07 06:02:53;;;;;;;12.30;6.20;;;;;;;23.92;48.35;100132.50;4784645;29;20104;-60
2021/07/07 06:05:19;;;;;;;17.40;7.43;;;;;;;24.04;49.98;100135.00;4785887;29;20093;-59
2021/07/07 06:07:46;;;;;;;28.92;8.02;;;;;;;24.16;50.01;100138.47;4785694;29;20047;-63
2021/07/07 06:10:15;;;;;;;27.30;8.40;;;;;;;24.26;49.38;100131.44;4777296;29;20056;-59
2021/07/07 06:12:41;;;;;;;17.67;7.60;;;;;;;24.37;48.78;100131.38;4781554;29;20039;-60
2021/07/07 06:15:08;;;;;;;14.00;5.72;;;;;;;24.45;45.97;100125.41;4785715;29;20054;-58
2021/07/07 06:17:34;;;;;;;12.88;5.40;;;;;;;24.57;45.61;100124.38;4785385;29;20582;-59
2021/07/07 06:20:00;;;;;;;16.73;6.00;;;;;;;24.69;46.83;100133.97;4785704;29;20115;-59
2021/07/07 06:22:26;;;;;;;16.55;9.25;;;;;;;24.84;46.99;100132.66;5233118;24;20059;-59
2021/07/07 06:24:52;;;;;;;15.98;6.38;;;;;;;24.96;46.00;100133.44;4784932;29;20130;-60
2021/07/07 06:27:17;;;;;;;13.15;7.32;;;;;;;25.11;45.21;100134.75;4785051;29;20059;-59
2021/07/07 06:29:43;;;;;;;9.25;4.88;;;;;;;25.26;42.56;100133.41;4788643;29;20047;-59
2021/07/07 06:32:09;;;;;;;18.67;6.10;;;;;;;25.41;43.31;100133.88;4785083;29;20051;-59
2021/07/07 06:34:34;;;;;;;15.43;4.80;;;;;;;25.57;41.97;100130.72;4769262;30;20523;-60
2021/07/07 06:37:00;;;;;;;11.27;4.00;;;;;;;25.78;40.76;100142.09;4784302;30;20092;-59
2021/07/07 06:39:26;;;;;;;16.30;4.82;;;;;;;25.98;40.63;100133.13;4785546;30;20126;-60
2021/07/07 06:41:52;;;;;;;39.65;9.30;;;;;;;26.25;42.39;100129.78;5248913;24;20074;-62
2021/07/07 06:44:17;;;;;;;16.02;5.85;;;;;;;26.74;40.35;100131.41;4798303;29;20046;-59
2021/07/07 06:46:43;;;;;;;12.90;3.60;;;;;;;27.39;36.93;100135.78;4800887;29;20659;-58
2021/07/07 06:49:09;;;;;;;4.43;2.70;;;;;;;28.19;34.30;100126.97;4803144;29;20039;-61
2021/07/07 06:51:35;;;;;;;14.32;6.60;;;;;;;29.32;33.04;100134.03;4803212;29;20141;-61
2021/07/07 06:54:01;;;;;;;10.52;4.22;;;;;;;30.36;31.95;100139.81;4802298;29;20205;-61
2021/07/07 06:56:27;;;;;;;14.80;6.28;;;;;;;31.35;29.97;100140.28;4802948;29;20055;-62
2021/07/07 06:58:52;;;;;;;21.30;4.40;;;;;;;32.34;28.38;100151.13;4802798;29;20502;-60
2021/07/07 07:01:18;;;;;;;11.75;4.40;;;;;;;33.32;27.33;100143.72;4803068;29;20507;-59
2021/07/07 07:03:44;;;;;;;22.40;9.25;;;;;;;34.19;26.04;100144.50;4804846;29;20061;-60
2021/07/07 07:06:09;;;;;;;10.93;3.00;;;;;;;35.07;24.78;100143.13;4783977;29;20420;-59
2021/07/07 07:08:35;;;;;;;4.65;3.38;;;;;;;35.96;23.12;100150.13;4801468;29;20513;-61
2021/07/07 07:11:01;;;;;;;13.60;6.78;;;;;;;36.75;21.87;100143.94;4802476;29;20046;-60
2021/07/07 07:13:26;;;;;;;8.77;4.07;;;;;;;37.24;20.06;100157.81;5248343;24;20065;-59
2021/07/07 07:15:52;;;;;;;8.85;3.05;;;;;;;37.55;19.97;100148.97;4788703;29;20043;-61
2021/07/07 07:18:18;;;;;;;11.77;5.50;;;;;;;38.39;19.87;100137.75;4788696;30;20058;-60
2021/07/07 07:20:43;;;;;;;34.65;5.97;;;;;;;39.17;19.65;100140.78;4788561;30;20047;-60
2021/07/07 07:23:19;;;;;;;8.48;5.13;;;;;;;39.95;18.17;100145.41;5200103;24;21064;31
2021/07/07 07:25:45;;;;;;;12.07;5.40;;;;;;;40.14;17.40;100147.84;4732501;30;20084;-61
2021/07/07 07:28:11;;;;;;;17.90;5.15;;;;;;;40.73;17.45;100146.03;4735330;30;20080;-59
2021/07/07 07:30:36;;;;;;;6.28;3.78;;;;;;;41.50;16.41;100151.28;4734644;30;20048;-60
2021/07/07 07:33:02;;;;;;;13.50;5.55;;;;;;;41.95;15.64;100154.91;4735186;30;20530;-60
2021/07/07 07:35:28;;;;;;;18.30;6.63;;;;;;;42.32;15.77;100152.56;4732231;30;20053;-58
2021/07/07 07:38:11;;;;;;;4.50;2.70;;;;;;;42.21;14.17;100150.69;4731583;30;20045;-60
2021/07/07 07:40:38;;;;;;;7.80;6.50;;;;;;;42.15;14.70;100157.97;4730634;30;20055;-61
2021/07/07 07:43:08;;;;;;;40.42;5.93;;;;;;;42.55;15.10;100155.13;4739011;30;20091;-60
2021/07/07 07:45:34;;;;;;;11.82;3.53;;;;;;;42.86;13.79;100152.84;4738240;30;20140;-60
2021/07/07 07:48:00;;;;;;;9.55;3.33;;;;;;;42.28;14.22;100156.88;4731172;30;20489;-60
2021/07/07 07:50:26;;;;;;;8.18;3.10;;;;;;;42.70;14.18;100156.44;4730307;30;20080;-60
2021/07/07 07:52:52;;;;;;;13.93;4.32;;;;;;;43.30;13.70;100153.72;4730843;30;20048;-61
2021/07/07 07:55:18;;;;;;;14.68;4.72;;;;;;;43.86;13.61;100155.19;4729941;30;20044;-59
2021/07/07 07:57:44;;;;;;;8.05;3.72;;;;;;;44.12;12.96;100154.38;4730458;30;20049;-58
2021/07/07 08:00:15;;;;;;;10.05;6.60;;;;;;;44.43;12.97;100160.13;4730881;30;20061;-59
2021/07/07 08:02:42;;;;;;;9.38;4.68;;;;;;;44.66;13.08;100171.56;4730730;30;20063;-60
2021/07/07 08:05:08;;;;;;;12.25;4.13;;;;;;;44.93;12.59;100173.34;4730578;30;20053;-58
2021/07/07 08:07:34;;;;;;;3.38;3.08;;;;;;;44.56;12.20;100165.97;4730056;30;20072;-60
2021/07/07 08:10:00;;;;;;;18.15;6.95;;;;;;;45.02;12.57;100169.00;4730676;30;20056;-60
2021/07/07 08:12:26;;;;;;;10.40;4.35;;;;;;;45.40;12.53;100173.31;4729891;30;20531;-59
2021/07/07 08:14:52;;;;;;;11.98;5.85;;;;;;;45.68;12.10;100174.81;4730636;30;20053;-60
2021/07/07 08:17:19;;;;;;;6.63;5.85;;;;;;;45.30;12.27;100179.59;4728723;30;20053;-59
2021/07/07 08:19:47;;;;;;;15.65;6.55;;;;;;;45.21;12.15;100181.22;4729814;30;20114;-60
2021/07/07 08:22:13;;;;;;;18.05;6.05;;;;;;;45.26;12.60;100177.69;4730257;30;20053;-58
2021/07/07 08:24:39;;;;;;;10.60;4.22;;;;;;;45.54;11.85;100186.31;4729879;30;20060;-60
2021/07/07 08:27:05;;;;;;;6.00;3.40;;;;;;;45.85;11.31;100180.94;4730622;30;20053;-60
2021/07/07 08:29:31;;;;;;;6.35;3.70;;;;;;;45.23;11.75;100179.03;4729484;30;20075;-59
2021/07/07 08:31:57;;;;;;;5.40;4.50;;;;;;;45.13;12.07;100171.56;4729880;30;20140;-60
2021/07/07 08:34:22;;;;;;;5.55;3.45;;;;;;;45.48;11.86;100172.84;4729922;30;20136;-59
2021/07/07 08:36:48;;;;;;;38.50;7.80;;;;;;;46.01;12.23;100188.06;4728714;30;20045;-59
2021/07/07 08:39:13;;;;;;;16.52;4.82;;;;;;;46.38;11.90;100188.66;4729466;30;20489;-58
2021/07/07 08:41:40;;;;;;;12.88;6.32;;;;;;;46.76;11.24;100181.78;4729624;30;20041;-60
2021/07/07 08:44:07;;;;;;;12.07;4.25;;;;;;;46.53;11.40;100184.28;4729865;30;20047;-61
2021/07/07 08:46:35;;;;;;;8.43;4.05;;;;;;;46.55;11.33;100176.59;4729316;30;20186;-59
2021/07/07 08:49:03;;;;;;;14.95;4.68;;;;;;;46.46;11.11;100187.31;4730241;30;20139;-59
2021/07/07 08:51:29;;;;;;;12.98;7.22;;;;;;;46.52;11.59;100179.88;4728542;30;20052;-58
2021/07/07 08:56:50;;;;;;;10.00;4.93;;;;;;;46.88;11.33;100170.47;4748657;30;20056;-60
2021/07/07 08:59:17;;;;;;;14.18;7.45;;;;;;;47.14;11.09;100174.81;4751368;30;20044;-60
2021/07/07 09:01:58;;;;;;;35.63;10.98;;;;;;;47.28;11.49;100179.72;4751306;30;20056;-60
2021/07/07 09:04:37;;;;;;;12.52;6.25;;;;;;;47.54;10.87;100173.81;4751295;30;20048;-59
2021/07/07 09:07:07;;;;;;;8.10;5.75;;;;;;;47.82;11.07;100179.72;4751204;30;20044;-60
2021/07/07 09:09:42;;;;;;;5.43;4.30;;;;;;;47.73;10.12;100182.28;4751009;30;20520;-61
2021/07/07 09:12:15;;;;;;;45.38;16.88;;;;;;;47.51;10.93;100177.13;4750770;30;20125;-60
2021/07/07 09:14:43;;;;;;;24.13;11.60;;;;;;;47.84;10.05;100174.75;4735250;30;20189;-59
2021/07/07 09:17:19;;;;;;;11.50;6.13;;;;;;;48.12;10.00;100174.00;4751080;30;20055;-60
2021/07/07 09:19:46;;;;;;;21.45;7.10;;;;;;;48.07;10.21;100175.97;4750681;30;20040;-61
2021/07/07 09:22:13;;;;;;;11.18;5.68;;;;;;;47.99;10.09;100177.41;4750650;30;20052;-60
2021/07/07 09:24:40;;;;;;;;;;;;;;;47.92;10.13;100180.47;4735323;30;20123;-60
2021/07/07 09:27:07;;;;;;;8.27;4.82;;;;;;;47.70;9.68;100174.56;4751029;30;19926;-61
2021/07/07 09:29:53;;;;;;;10.35;5.10;;;;;;;47.77;10.24;100177.84;4750612;30;20048;-62
2021/07/07 09:32:29;;;;;;;6.85;4.70;;;;;;;47.16;10.04;100175.31;4750586;30;20114;-61
2021/07/07 09:35:00;;;;;;;10.50;5.13;;;;;;;47.05;10.25;100173.75;4750431;30;20052;-60
2021/07/07 09:37:41;;;;;;;4.93;4.25;;;;;;;46.96;10.22;100174.59;4750616;30;20051;-60
2021/07/07 09:40:10;;;;;;;4.90;4.47;;;;;;;46.67;9.95;100168.88;4750933;30;20471;-60
2021/07/07 09:42:38;;;;;;;4.32;4.03;;;;;;;46.70;10.45;100162.78;4750670;30;20048;-60
2021/07/07 09:45:06;;;;;;;13.27;5.85;;;;;;;47.17;10.45;100163.22;5233178;24;20051;-60
2021/07/07 09:47:32;;;;;;;17.85;9.52;;;;;;;47.69;10.48;100169.31;4803989;29;20581;-60
2021/07/07 09:49:59;;;;;;;8.20;5.80;;;;;;;47.69;10.07;100161.88;4804077;29;20133;-60
2021/07/07 09:52:25;;;;;;;;;;;;;;;47.93;9.97;100162.00;4786666;29;20082;-61
2021/07/07 09:54:52;;;;;;;6.95;6.30;;;;;;;48.01;10.00;100155.88;4803792;29;19925;-60
2021/07/07 09:57:18;;;;;;;13.50;7.55;;;;;;;48.16;10.08;100157.69;4803966;29;20050;-61
2021/07/07 09:59:44;;;;;;;7.05;6.20;;;;;;;48.50;9.94;100149.41;4804232;29;20080;-61
2021/07/07 10:02:10;;;;;;;10.35;7.70;;;;;;;48.71;9.91;100153.63;4803759;29;20833;-60
2021/07/07 10:04:38;;;;;;;7.07;6.38;;;;;;;48.77;9.85;100160.75;4802162;29;20185;-60
2021/07/07 10:07:07;;;;;;;8.10;7.28;;;;;;;48.85;10.14;100153.75;4799678;29;20099;-60
2021/07/07 10:09:37;;;;;;;11.20;7.70;;;;;;;48.88;10.06;100150.41;4799073;29;20568;-60
2021/07/07 10:12:05;;;;;;;7.13;4.63;;;;;;;48.74;9.42;100150.28;4783656;29;21073;-60
2021/07/07 10:14:32;;;;;;;6.60;6.10;;;;;;;48.64;9.59;100150.34;4798629;29;20698;-60
2021/07/07 10:16:58;;;;;;;17.67;15.50;;;;;;;48.49;9.64;100142.25;4801798;29;20047;-61
2021/07/07 10:19:24;;;;;;;5.55;5.05;;;;;;;47.88;9.96;100145.50;4800504;29;20099;-59
2021/07/07 10:21:50;;;;;;;5.82;5.20;;;;;;;46.94;10.06;100146.53;4803997;29;20047;-61
2021/07/07 10:24:17;;;;;;;5.85;5.35;;;;;;;47.06;10.23;100147.00;4802504;29;20583;-60
2021/07/07 10:26:44;;;;;;;7.93;5.60;;;;;;;47.69;10.39;100145.34;4790982;29;20065;-60
2021/07/07 10:29:10;;;;;;;;;;;;;;;47.88;10.20;100146.31;4799258;29;20050;-56
2021/07/07 10:31:45;;;;;;;9.20;5.27;;;;;;;47.98;9.85;100139.91;4797728;29;19929;-60
2021/07/07 10:34:11;;;;;;;10.00;7.10;;;;;;;47.80;10.10;100135.91;4799747;29;20055;-60
2021/07/07 10:36:40;;;;;;;10.07;5.38;;;;;;;47.79;10.37;100134.25;4799050;29;20050;-60
2021/07/07 10:39:07;;;;;;;5.28;4.88;;;;;;;47.78;10.08;100132.63;4799670;29;20051;-60
2021/07/07 10:41:42;;;;;;;5.72;5.22;;;;;;;47.99;10.04;100131.38;4800412;29;20051;-59
2021/07/07 10:47:12;;;;;;;5.22;4.82;;;;;;;48.07;9.80;100129.91;4766465;29;20067;-60
2021/07/07 10:49:51;;;;;;;6.78;5.60;;;;;;;48.38;9.19;100124.97;4771052;30;20048;-61
2021/07/07 10:52:43;;;;;;;6.93;5.60;;;;;;;48.66;9.33;100131.56;4771420;30;20555;-60
2021/07/07 10:55:12;;;;;;;6.88;4.90;;;;;;;48.34;8.99;100126.63;4771040;30;20428;-60
2021/07/07 10:57:40;;;;;;;6.13;5.25;;;;;;;47.72;8.53;100130.19;4771324;29;20047;-60
2021/07/07 11:00:29;;;;;;;5.15;4.70;;;;;;;47.40;9.03;100125.94;4771236;30;20052;-61
2021/07/07 11:03:35;;;;;;;5.53;4.97;;;;;;;47.67;9.58;100130.22;4770759;30;20039;-59
2021/07/07 11:06:23;;;;;;;5.78;5.28;;;;;;;48.07;9.78;100126.34;5252819;24;20246;-60
2021/07/07 11:08:57;;;;;;;6.20;5.50;;;;;;;48.02;9.44;100129.13;4787306;29;20074;-61
2021/07/07 11:11:24;;;;;;;6.18;5.45;;;;;;;47.98;9.41;100131.63;4785970;29;20051;-61
2021/07/07 11:13:52;;;;;;;11.02;9.10;;;;;;;48.10;9.80;100132.13;4784791;29;20589;-60
2021/07/07 11:16:28;;;;;;;6.13;5.68;;;;;;;47.47;10.18;100128.38;5258011;24;20103;-60
2021/07/07 11:18:54;;;;;;;13.95;7.43;;;;;;;47.42;10.17;100120.16;4794383;29;20042;-60
2021/07/07 11:21:20;;;;;;;9.97;6.47;;;;;;;47.61;10.37;100110.09;4798244;29;20419;-61
2021/07/07 11:23:46;;;;;;;7.35;6.43;;;;;;;47.85;10.53;100122.06;4787275;29;20508;-60
2021/07/07 11:26:13;;;;;;;13.13;7.13;;;;;;;48.10;10.68;100118.31;4788601;29;20051;-59
2021/07/07 11:28:38;;;;;;;10.25;7.63;;;;;;;48.23;10.68;100119.56;4784965;29;20047;-61
2021/07/07 11:31:04;;;;;;;6.37;5.70;;;;;;;48.06;10.43;100114.47;4788610;29;20116;-60
2021/07/07 11:33:30;;;;;;;7.60;5.77;;;;;;;48.25;10.33;100109.91;4788702;29;20068;-63